Accueil
METAR-TAF:

METAR-TAF

Aéroports :

Koweït, Koweït

Aéroport international de Koweït

latitude: 29-13N, longitude: 047-59E, altitude: 55 m

Observation

Le bulletin a été fait il y a 12 minutes, à 03:00 UTC
Vent calme
Température 24°C
Humidité 36%
Pression 1013 hPa
Visibilité: 7000 m

METAR: OKBK 250300Z 00000KT 7000 NSC 24/08 Q1013 NOSIG

Heure: 06:12 (03:12 UTC)

Prévision

Le bulletin a été fait il y a 4 heures et 27 minutes, à 22:45 UTC
Prévision valable du 25 à 00 UTC au 26 à 06 UTC
Vent 8 kt de ouest avec des rafales jusqu'à 18 kt
Visibilité: 6000 m
Nuages épars à une hauteur de 4000 ft
Evoluant progressivement
du 25 à 03 UTC au 25 à 05 UTC
Vent 12 kt de nord/nord-est

TAF: OKBK 242245Z 2500/2606 26008G18KT 6000 SCT040 BECMG 2503/2505 02012KT

Observations et prévisions météorologiques de plus de 4000 aéroports (messages METAR et TAF).

Les stations disponibles sont représentées par des disques jaunes et rouges sur la carte.

Passer la souris dessus pour voir le nom de la station.

Cliquer dessus pour voir les observations et prévisions météorologiques.

Pour changer de carte: cliquez sur les boutons verts avec une croix noire pour zoomer, sur le bouton vert avec un tiret pour effectuer un zoom arrière, ou sur les flèches vertes pour les cartes adjacentes.


METAR-TAF: